createdAt,value
2022-11-01T00:02:21.981Z,13.01
2022-11-01T00:04:51.433Z,12.75
2022-11-01T00:07:20.784Z,12.88
2022-11-01T00:09:49.793Z,12.97
2022-11-01T00:12:19.378Z,12.54
2022-11-01T00:14:49.287Z,12.29
2022-11-01T00:17:18.658Z,12.50
2022-11-01T00:19:49.443Z,12.73
2022-11-01T00:22:18.893Z,12.44
2022-11-01T00:24:48.351Z,12.66
2022-11-01T00:27:17.452Z,12.71
2022-11-01T00:29:46.558Z,12.48
2022-11-01T00:32:16.508Z,12.96
2022-11-01T00:34:46.034Z,12.80
2022-11-01T00:37:16.838Z,12.61
2022-11-01T00:39:46.228Z,12.49
2022-11-01T00:42:15.638Z,12.48
2022-11-01T00:44:45.140Z,12.59
2022-11-01T00:47:14.588Z,12.58
2022-11-01T00:49:43.690Z,12.35
2022-11-01T00:52:12.758Z,12.46
2022-11-01T00:54:43.572Z,12.80
2022-11-01T00:57:13.287Z,12.72
2022-11-01T00:59:42.781Z,12.83
2022-11-01T01:02:12.567Z,12.72
2022-11-01T01:04:43.356Z,12.21
2022-11-01T01:07:13.658Z,12.12
2022-11-01T01:09:44.276Z,12.23
2022-11-01T01:12:13.856Z,11.84
2022-11-01T01:14:43.013Z,11.72
2022-11-01T01:17:12.150Z,12.21
2022-11-01T01:19:41.829Z,12.04
2022-11-01T01:22:11.029Z,12.64
2022-11-01T01:24:45.569Z,12.38
2022-11-01T01:27:18.126Z,12.49
2022-11-01T01:29:47.145Z,12.25
2022-11-01T01:32:18.124Z,11.60
2022-11-01T01:34:47.938Z,11.48
2022-11-01T01:37:17.660Z,11.58
2022-11-01T01:39:47.090Z,12.05
2022-11-01T01:42:30.763Z,12.20
2022-11-01T01:45:22.059Z,12.23
2022-11-01T01:47:53.496Z,12.30
2022-11-01T01:50:27.195Z,12.61
2022-11-01T01:53:00.553Z,12.45
2022-11-01T01:55:34.102Z,12.35
2022-11-01T01:58:05.255Z,12.57
2022-11-01T02:00:34.990Z,12.48
2022-11-01T02:03:04.715Z,12.35
2022-11-01T02:05:39.502Z,12.48
2022-11-01T02:08:09.218Z,12.38
2022-11-01T02:10:38.439Z,12.55
2022-11-01T02:13:14.679Z,12.28
2022-11-01T02:15:52.442Z,12.29
2022-11-01T02:18:29.409Z,12.46
2022-11-01T02:21:22.706Z,12.62
2022-11-01T02:24:44.898Z,12.21
2022-11-01T02:27:26.796Z,11.90
2022-11-01T02:30:16.218Z,12.13
2022-11-01T02:33:16.354Z,12.39
2022-11-01T02:35:54.977Z,12.10
2022-11-01T02:38:28.200Z,12.50
2022-11-01T02:41:04.454Z,12.59
2022-11-01T02:43:38.072Z,12.62
2022-11-01T02:46:22.187Z,12.26
2022-11-01T02:48:53.402Z,11.63
2022-11-01T02:51:25.327Z,12.03
2022-11-01T02:53:54.538Z,12.02
2022-11-01T02:56:23.840Z,11.93
2022-11-01T02:58:53.870Z,12.32
2022-11-01T03:01:26.393Z,12.45
2022-11-01T03:03:58.904Z,12.37
2022-11-01T03:06:33.980Z,12.29
2022-11-01T03:09:05.653Z,12.32
2022-11-01T03:11:41.244Z,12.21
2022-11-01T03:14:19.725Z,12.52
2022-11-01T03:16:55.121Z,12.26
2022-11-01T03:19:36.696Z,12.06
2022-11-01T03:22:11.686Z,11.66
2022-11-01T03:24:48.880Z,11.93
2022-11-01T03:27:21.554Z,12.14
2022-11-01T03:29:57.192Z,11.95
2022-11-01T03:32:31.574Z,12.10
2022-11-01T03:35:03.560Z,12.03
2022-11-01T03:37:33.806Z,11.67
2022-11-01T03:40:05.141Z,11.38
2022-11-01T03:42:35.256Z,11.73
2022-11-01T03:45:08.222Z,11.92
2022-11-01T03:47:37.810Z,11.50
2022-11-01T03:50:15.909Z,11.80
2022-11-01T03:52:45.261Z,11.85
2022-11-01T03:55:20.693Z,12.31
2022-11-01T03:57:50.563Z,12.05
2022-11-01T04:00:22.216Z,11.68
2022-11-01T04:02:52.342Z,11.37
2022-11-01T04:05:24.350Z,11.78
2022-11-01T04:07:53.831Z,12.16
2022-11-01T04:10:24.110Z,11.96
2022-11-01T04:12:54.159Z,11.83
2022-11-01T04:15:42.207Z,11.40
2022-11-01T04:18:33.629Z,11.62
2022-11-01T04:21:06.618Z,11.74
2022-11-01T04:23:36.521Z,11.94
2022-11-01T04:26:07.374Z,11.93
2022-11-01T04:28:36.477Z,11.78
2022-11-01T04:31:06.587Z,11.54
2022-11-01T04:33:35.993Z,11.92
2022-11-01T04:36:08.876Z,12.15
2022-11-01T04:38:37.886Z,11.79
2022-11-01T04:41:07.381Z,12.02
2022-11-01T04:43:36.789Z,11.56
2022-11-01T04:46:06.088Z,11.31
2022-11-01T04:48:35.406Z,11.33
2022-11-01T04:51:06.637Z,11.87
2022-11-01T04:53:35.818Z,11.50
2022-11-01T04:56:05.880Z,11.44
2022-11-01T04:58:40.026Z,11.59
2022-11-01T05:01:12.780Z,11.80
2022-11-01T05:03:42.347Z,11.67
2022-11-01T05:06:13.024Z,11.79
2022-11-01T05:08:42.558Z,11.89
2022-11-01T05:11:11.935Z,12.02
2022-11-01T05:13:40.925Z,11.85
2022-11-01T05:16:25.483Z,12.07
2022-11-01T05:18:54.834Z,11.76
2022-11-01T05:21:25.342Z,11.93
2022-11-01T05:23:54.741Z,12.18
2022-11-01T05:26:24.213Z,12.36
2022-11-01T05:28:53.671Z,12.37
2022-11-01T05:31:23.012Z,11.92
2022-11-01T05:33:52.968Z,12.20
2022-11-01T05:36:22.303Z,12.22
2022-11-01T05:38:52.882Z,12.25
2022-11-01T05:41:22.238Z,12.47
2022-11-01T05:43:51.521Z,12.49
2022-11-01T05:46:22.985Z,12.19
2022-11-01T05:48:53.102Z,11.56
2022-11-01T05:51:22.693Z,11.82
2022-11-01T05:53:53.771Z,12.11
2022-11-01T05:56:23.109Z,11.95
2022-11-01T05:58:52.158Z,12.19
2022-11-01T06:01:21.351Z,12.10
2022-11-01T06:03:51.754Z,11.64
2022-11-01T06:06:21.069Z,11.94
2022-11-01T06:08:50.546Z,12.31
2022-11-01T06:11:21.279Z,12.58
2022-11-01T06:13:53.718Z,12.48
2022-11-01T06:16:23.205Z,12.17
2022-11-01T06:18:52.578Z,12.07
2022-11-01T06:21:26.174Z,12.08
2022-11-01T06:23:59.056Z,12.05
2022-11-01T06:26:29.772Z,12.28
2022-11-01T06:29:01.022Z,12.38
2022-11-01T06:31:31.538Z,12.35
2022-11-01T06:34:01.201Z,12.28
2022-11-01T06:36:30.743Z,12.02
2022-11-01T06:39:00.224Z,12.06
2022-11-01T06:41:30.943Z,11.84
2022-11-01T06:44:00.336Z,11.80
2022-11-01T06:46:29.297Z,11.85
2022-11-01T06:48:58.280Z,11.97
2022-11-01T06:51:27.846Z,12.23
2022-11-01T06:53:57.417Z,11.80
2022-11-01T06:56:26.757Z,12.07
2022-11-01T06:58:57.645Z,11.49
2022-11-01T07:01:26.769Z,11.81
2022-11-01T07:03:56.279Z,11.88
2022-11-01T07:06:28.801Z,12.18
2022-11-01T07:08:59.690Z,11.86
2022-11-01T07:11:31.651Z,11.67
2022-11-01T07:14:02.999Z,11.96
2022-11-01T07:16:32.459Z,12.19
2022-11-01T07:19:01.876Z,12.33
2022-11-01T07:21:31.222Z,12.04
2022-11-01T07:24:00.862Z,11.84
2022-11-01T07:26:30.415Z,11.68
2022-11-01T07:29:01.343Z,12.22
2022-11-01T07:31:33.217Z,12.16
2022-11-01T07:34:02.803Z,12.18
2022-11-01T07:36:37.867Z,12.30
2022-11-01T07:39:07.278Z,12.66
2022-11-01T07:41:36.256Z,12.50
2022-11-01T07:44:06.780Z,12.27
2022-11-01T07:46:36.077Z,12.19
2022-11-01T07:49:05.420Z,12.25
2022-11-01T07:51:34.635Z,12.41
2022-11-01T07:54:03.755Z,12.60
2022-11-01T07:56:32.969Z,12.10
2022-11-01T07:59:02.237Z,12.18
2022-11-01T08:01:32.968Z,11.99
2022-11-01T08:04:02.371Z,11.56
2022-11-01T08:06:31.617Z,12.04
2022-11-01T08:09:01.189Z,11.84
2022-11-01T08:11:30.556Z,12.33
2022-11-01T08:14:02.930Z,12.32
2022-11-01T08:16:36.941Z,12.18
2022-11-01T08:19:06.218Z,12.38
2022-11-01T08:21:35.462Z,12.12
2022-11-01T08:24:04.613Z,12.47
2022-11-01T08:26:33.974Z,12.32
2022-11-01T08:29:03.376Z,12.56
2022-11-01T08:31:32.708Z,11.98
2022-11-01T08:34:03.400Z,11.72
2022-11-01T08:36:46.861Z,12.10
2022-11-01T08:39:16.173Z,11.68
2022-11-01T08:41:48.764Z,11.92
2022-11-01T08:44:19.383Z,12.04
2022-11-01T08:46:49.338Z,12.19
2022-11-01T08:49:20.032Z,12.55
2022-11-01T08:51:49.471Z,12.26
2022-11-01T08:54:18.803Z,11.80
2022-11-01T08:56:48.127Z,11.95
2022-11-01T08:59:17.507Z,12.45
2022-11-01T09:01:47.120Z,12.35
2022-11-01T09:04:16.642Z,12.42
2022-11-01T09:06:47.091Z,12.03
2022-11-01T09:09:16.355Z,11.93
2022-11-01T09:11:45.697Z,12.03
2022-11-01T09:14:14.680Z,11.97
2022-11-01T09:16:44.034Z,12.19
2022-11-01T09:19:13.619Z,12.31
2022-11-01T09:21:44.005Z,12.38
2022-11-01T09:24:15.467Z,12.28
2022-11-01T09:26:45.245Z,12.48
2022-11-01T09:29:14.992Z,12.47
2022-11-01T09:31:44.344Z,12.94
2022-11-01T09:34:13.318Z,12.93
2022-11-01T09:36:47.408Z,12.96
2022-11-01T09:39:22.069Z,13.16
2022-11-01T09:41:53.686Z,13.15
2022-11-01T09:44:26.609Z,13.46
2022-11-01T09:47:02.325Z,13.89
2022-11-01T09:49:34.667Z,14.06
2022-11-01T09:52:03.911Z,13.92
2022-11-01T09:54:34.806Z,14.09
2022-11-01T09:57:10.442Z,14.12
2022-11-01T09:59:43.372Z,14.33
2022-11-01T10:02:38.966Z,14.56
2022-11-01T10:05:37.097Z,14.56
2022-11-01T10:08:11.979Z,15.31
2022-11-01T10:10:48.923Z,15.41
2022-11-01T10:13:33.548Z,15.84
2022-11-01T10:16:06.135Z,15.56
2022-11-01T10:18:39.673Z,15.76
2022-11-01T10:21:15.134Z,15.86
2022-11-01T10:23:47.427Z,15.96
2022-11-01T10:26:21.341Z,15.93
2022-11-01T10:28:55.960Z,16.14
2022-11-01T10:31:27.245Z,16.31
2022-11-01T10:34:00.184Z,16.62
2022-11-01T10:36:33.618Z,17.13
2022-11-01T10:42:13.061Z,16.96
2022-11-01T10:44:44.307Z,16.92
2022-11-01T10:47:19.161Z,17.31
2022-11-01T10:50:07.574Z,17.20
2022-11-01T10:52:46.489Z,16.78
2022-11-01T10:55:20.028Z,17.27
2022-11-01T10:57:54.398Z,17.68
2022-11-01T11:00:23.804Z,18.68
2022-11-01T11:02:55.670Z,18.47
2022-11-01T11:05:27.255Z,18.22
2022-11-01T11:07:57.993Z,18.20
2022-11-01T11:10:29.601Z,18.52
2022-11-01T11:13:04.877Z,18.90
2022-11-01T11:15:41.479Z,18.66
2022-11-01T11:18:25.188Z,19.47
2022-11-01T11:20:57.506Z,19.33
2022-11-01T11:23:29.676Z,18.99
2022-11-01T11:26:03.715Z,19.05
2022-11-01T11:28:38.818Z,19.30
2022-11-01T11:31:18.628Z,19.30
2022-11-01T11:33:53.457Z,19.39
2022-11-01T11:36:28.986Z,19.68
2022-11-01T11:38:58.878Z,19.99
2022-11-01T11:41:30.112Z,19.82
2022-11-01T11:44:01.163Z,20.35
2022-11-01T11:46:30.873Z,20.37
2022-11-01T11:49:04.653Z,20.32
2022-11-01T11:51:37.639Z,20.57
2022-11-01T11:54:24.109Z,20.91
2022-11-01T11:57:07.273Z,20.98
2022-11-01T11:59:38.731Z,20.97
2022-11-01T12:06:07.357Z,20.83
2022-11-01T12:08:46.417Z,20.96
2022-11-01T12:11:41.565Z,21.36
2022-11-01T12:14:23.469Z,21.00
2022-11-01T12:16:54.440Z,20.73
2022-11-01T12:19:30.569Z,20.91
2022-11-01T12:22:06.049Z,21.28
2022-11-01T12:24:45.048Z,21.17
2022-11-01T12:27:17.158Z,21.21
2022-11-01T12:29:50.816Z,21.44
2022-11-01T12:32:27.782Z,21.26
2022-11-01T12:34:59.741Z,21.40
2022-11-01T12:37:32.585Z,22.06
2022-11-01T12:40:06.577Z,21.88
2022-11-01T12:42:41.469Z,21.68
2022-11-01T12:45:16.682Z,21.60
2022-11-01T12:47:49.828Z,21.51
2022-11-01T12:50:22.321Z,21.17
2022-11-01T12:52:57.061Z,21.82
2022-11-01T12:55:31.711Z,21.32
2022-11-01T12:58:10.305Z,21.15
2022-11-01T13:00:54.040Z,21.19
2022-11-01T13:03:31.651Z,21.41
2022-11-01T13:06:07.353Z,21.05
2022-11-01T13:08:43.402Z,20.98
2022-11-01T13:11:26.850Z,20.86
2022-11-01T13:14:05.133Z,20.73
2022-11-01T13:16:39.729Z,20.85
2022-11-01T13:19:19.592Z,20.69
2022-11-01T13:24:44.060Z,20.73
2022-11-01T13:27:16.357Z,20.93
2022-11-01T13:29:52.814Z,20.73
2022-11-01T13:32:26.147Z,20.53
2022-11-01T13:35:27.469Z,20.44
2022-11-01T13:37:59.972Z,20.47
2022-11-01T13:40:35.932Z,20.52
2022-11-01T13:43:12.442Z,20.62
2022-11-01T13:46:14.245Z,20.15
2022-11-01T13:49:04.491Z,20.40
2022-11-01T13:51:41.546Z,19.97
2022-11-01T13:54:19.628Z,19.87
2022-11-01T13:56:56.368Z,20.03
2022-11-01T13:59:34.428Z,19.70
2022-11-01T14:02:49.836Z,19.73
2022-11-01T14:05:20.428Z,19.70
2022-11-01T14:08:15.628Z,20.25
2022-11-01T14:10:50.074Z,20.81
2022-11-01T14:13:20.708Z,20.08
2022-11-01T14:16:25.615Z,20.03
2022-11-01T14:19:20.135Z,19.72
2022-11-01T14:22:09.685Z,19.64
2022-11-01T14:24:57.765Z,19.53
2022-11-01T14:27:37.470Z,19.19
2022-11-01T14:30:15.581Z,19.45
2022-11-01T14:32:48.753Z,19.21
2022-11-01T14:35:22.689Z,18.99
2022-11-01T14:37:55.143Z,19.21
2022-11-01T14:40:31.831Z,19.36
2022-11-01T14:43:06.373Z,19.24
2022-11-01T14:45:37.735Z,19.21
2022-11-01T14:48:13.562Z,18.99
2022-11-01T14:50:51.155Z,18.52
2022-11-01T14:53:25.073Z,18.87
2022-11-01T14:56:08.060Z,18.50
2022-11-01T14:58:37.778Z,18.32
2022-11-01T15:01:09.051Z,18.60
2022-11-01T15:03:39.016Z,18.34
2022-11-01T15:06:22.007Z,18.04
2022-11-01T15:08:51.176Z,18.17
2022-11-01T15:11:23.028Z,17.70
2022-11-01T15:13:53.568Z,17.78
2022-11-01T15:16:26.862Z,17.63
2022-11-01T15:19:00.001Z,17.50
2022-11-01T15:21:31.407Z,17.38
2022-11-01T15:24:03.125Z,17.40
2022-11-01T15:26:35.528Z,17.53
2022-11-01T15:29:06.316Z,17.74
2022-11-01T15:31:38.697Z,17.43
2022-11-01T15:34:23.990Z,17.16
2022-11-01T15:36:55.972Z,17.04
2022-11-01T15:39:29.321Z,17.06
2022-11-01T15:42:03.425Z,16.88
2022-11-01T15:44:33.210Z,16.78
2022-11-01T15:47:05.865Z,16.80
2022-11-01T15:49:37.491Z,16.57
2022-11-01T15:52:09.269Z,16.59
2022-11-01T15:54:46.995Z,16.48
2022-11-01T15:57:25.918Z,16.54
2022-11-01T15:59:59.712Z,16.83
2022-11-01T16:02:32.698Z,16.51
2022-11-01T16:05:02.523Z,16.54
2022-11-01T16:07:33.398Z,16.58
2022-11-01T16:10:03.687Z,16.31
2022-11-01T16:12:38.610Z,16.55
2022-11-01T16:15:19.955Z,16.70
2022-11-01T16:17:49.745Z,16.54
2022-11-01T16:20:32.021Z,16.25
2022-11-01T16:23:02.209Z,16.03
2022-11-01T16:25:33.063Z,16.02
2022-11-01T16:28:07.282Z,15.93
2022-11-01T16:30:43.170Z,15.89
2022-11-01T16:33:19.452Z,16.28
2022-11-01T16:35:50.052Z,15.87
2022-11-01T16:38:44.475Z,15.68
2022-11-01T16:41:20.417Z,15.72
2022-11-01T16:43:57.140Z,15.71
2022-11-01T16:46:28.187Z,15.90
2022-11-01T16:48:58.997Z,15.91
2022-11-01T16:51:30.104Z,15.75
2022-11-01T16:54:01.634Z,15.69
2022-11-01T16:56:37.691Z,15.67
2022-11-01T16:59:20.919Z,15.58
2022-11-01T17:01:50.861Z,15.58
2022-11-01T17:04:24.449Z,15.60
2022-11-01T17:06:55.069Z,15.54
2022-11-01T17:09:25.133Z,15.50
2022-11-01T17:11:54.893Z,15.54
2022-11-01T17:14:26.531Z,15.39
2022-11-01T17:16:56.930Z,15.35
2022-11-01T17:19:29.515Z,15.48
2022-11-01T17:21:58.901Z,15.39
2022-11-01T17:24:28.968Z,15.31
2022-11-01T17:27:00.712Z,15.31
2022-11-01T17:29:31.524Z,15.39
2022-11-01T17:32:03.021Z,15.26
2022-11-01T17:37:01.736Z,15.28
2022-11-01T17:39:31.785Z,15.22
2022-11-01T17:42:02.626Z,15.17
2022-11-01T17:44:33.109Z,15.14
2022-11-01T17:47:02.316Z,15.31
2022-11-01T17:49:31.845Z,15.25
2022-11-01T17:52:02.046Z,15.18
2022-11-01T17:54:31.602Z,15.13
2022-11-01T17:57:00.982Z,15.17
2022-11-01T17:59:30.971Z,15.26
2022-11-01T18:02:01.884Z,15.12
2022-11-01T18:04:35.703Z,15.16
2022-11-01T18:07:06.708Z,15.34
2022-11-01T18:09:37.443Z,15.29
2022-11-01T18:12:36.319Z,15.08
2022-11-01T18:15:09.956Z,15.02
2022-11-01T18:17:49.022Z,15.14
2022-11-01T18:20:29.860Z,15.14
2022-11-01T18:23:01.980Z,15.08
2022-11-01T18:25:36.611Z,15.11
2022-11-01T18:28:13.614Z,15.05
2022-11-01T18:30:43.673Z,15.08
2022-11-01T18:33:19.931Z,15.05
2022-11-01T18:35:52.517Z,15.06
2022-11-01T18:38:30.197Z,15.27
2022-11-01T18:41:00.994Z,15.07
2022-11-01T18:43:34.056Z,15.03
2022-11-01T18:46:24.050Z,15.05
2022-11-01T18:49:00.343Z,15.10
2022-11-01T18:51:31.623Z,15.17
2022-11-01T18:54:12.754Z,15.16
2022-11-01T18:56:44.460Z,15.13
2022-11-01T18:59:14.636Z,15.12
2022-11-01T19:01:45.168Z,15.06
2022-11-01T19:04:20.674Z,15.02
2022-11-01T19:06:50.056Z,15.01
2022-11-01T19:09:23.091Z,15.45
2022-11-01T19:11:59.092Z,15.14
2022-11-01T19:14:29.052Z,15.06
2022-11-01T19:16:59.741Z,15.16
2022-11-01T19:19:31.041Z,14.95
2022-11-01T19:22:01.549Z,15.02
2022-11-01T19:24:37.813Z,15.07
2022-11-01T19:27:15.424Z,15.18
2022-11-01T19:29:45.085Z,15.01
2022-11-01T19:32:16.481Z,15.02
2022-11-01T19:34:48.817Z,15.16
2022-11-01T19:37:24.025Z,15.03
2022-11-01T19:39:53.789Z,14.98
2022-11-01T19:42:27.713Z,14.86
2022-11-01T19:44:59.718Z,15.16
2022-11-01T19:47:38.577Z,14.94
2022-11-01T19:50:24.426Z,14.81
2022-11-01T19:52:56.482Z,15.03
2022-11-01T19:55:46.090Z,15.00
2022-11-01T19:58:37.214Z,14.85
2022-11-01T20:01:25.543Z,14.89
2022-11-01T20:03:57.490Z,14.82
2022-11-01T20:06:32.781Z,14.81
2022-11-01T20:09:05.974Z,15.08
2022-11-01T20:11:36.352Z,15.09
2022-11-01T20:14:06.208Z,14.97
2022-11-01T20:16:36.297Z,15.01
2022-11-01T20:19:05.557Z,14.89
2022-11-01T20:21:37.479Z,14.89
2022-11-01T20:24:07.796Z,14.94
2022-11-01T20:26:37.477Z,14.87
2022-11-01T20:29:07.430Z,14.84
2022-11-01T20:31:37.716Z,14.81
2022-11-01T20:34:07.493Z,14.85
2022-11-01T20:36:38.791Z,14.83
2022-11-01T20:39:10.463Z,14.93
2022-11-01T20:41:42.805Z,14.75
2022-11-01T20:47:57.548Z,14.87
2022-11-01T20:50:27.644Z,14.99
2022-11-01T20:53:00.034Z,15.01
2022-11-01T20:55:30.376Z,14.80
2022-11-01T20:58:02.686Z,14.76
2022-11-01T21:00:32.593Z,14.91
2022-11-01T21:03:04.880Z,14.79
2022-11-01T21:05:36.801Z,14.72
2022-11-01T21:08:16.635Z,14.66
2022-11-01T21:10:45.988Z,14.75
2022-11-01T21:13:31.024Z,14.75
2022-11-01T21:16:01.808Z,14.81
2022-11-01T21:18:44.176Z,14.66
2022-11-01T21:21:35.411Z,14.86
2022-11-01T21:24:29.628Z,14.67
2022-11-01T21:30:15.522Z,14.58
2022-11-01T21:32:47.780Z,14.84
2022-11-01T21:35:40.967Z,14.65
2022-11-01T21:38:37.186Z,14.63
2022-11-01T21:41:25.813Z,14.73
2022-11-01T21:43:55.819Z,14.89
2022-11-01T21:46:26.742Z,14.80
2022-11-01T21:48:59.709Z,14.84
2022-11-01T21:51:29.616Z,14.73
2022-11-01T21:54:03.275Z,14.74
2022-11-01T21:56:35.304Z,14.70
2022-11-01T21:59:04.294Z,14.67
2022-11-01T22:01:34.074Z,14.68
2022-11-01T22:04:03.837Z,14.72
2022-11-01T22:06:34.972Z,14.84
2022-11-01T22:09:04.377Z,14.87
2022-11-01T22:11:35.449Z,15.05
2022-11-01T22:14:05.185Z,14.79
2022-11-01T22:16:35.694Z,14.70
2022-11-01T22:19:05.424Z,14.53
2022-11-01T22:21:35.577Z,14.63
2022-11-01T22:24:05.480Z,14.78
2022-11-01T22:26:36.126Z,14.76
2022-11-01T22:29:05.995Z,14.72
2022-11-01T22:31:35.373Z,14.85
2022-11-01T22:34:04.749Z,14.58
2022-11-01T22:36:37.499Z,14.58
2022-11-01T22:39:16.010Z,14.74
2022-11-01T22:41:46.939Z,14.66
2022-11-01T22:44:18.443Z,14.65
2022-11-01T22:46:53.585Z,14.65
2022-11-01T22:49:26.141Z,14.68
2022-11-01T22:51:58.033Z,14.52
2022-11-01T22:54:33.238Z,14.60
2022-11-01T22:57:10.952Z,14.60
2022-11-01T22:59:43.454Z,14.47
2022-11-01T23:02:29.126Z,14.42
2022-11-01T23:05:20.828Z,14.47
2022-11-01T23:07:51.604Z,14.70
2022-11-01T23:10:29.709Z,14.51
2022-11-01T23:13:35.724Z,14.70
2022-11-01T23:16:11.768Z,14.72
2022-11-01T23:18:42.042Z,14.50
2022-11-01T23:21:11.921Z,14.41
2022-11-01T23:23:43.416Z,14.37
2022-11-01T23:26:13.982Z,14.41
2022-11-01T23:28:46.156Z,14.36
2022-11-01T23:31:16.206Z,14.61
2022-11-01T23:33:46.640Z,14.58
2022-11-01T23:36:19.622Z,14.43
2022-11-01T23:38:51.274Z,14.40
2022-11-01T23:41:23.659Z,14.46
2022-11-01T23:43:58.235Z,14.49
2022-11-01T23:46:27.861Z,14.53
2022-11-01T23:49:02.359Z,14.42
2022-11-01T23:51:32.496Z,14.56
2022-11-01T23:54:02.225Z,14.52
2022-11-01T23:56:32.624Z,14.57
2022-11-01T23:59:05.531Z,14.45
